createdAt,value
2018-02-06T00:00:15.542Z,28.37
2018-02-06T00:02:44.119Z,27.23
2018-02-06T00:05:12.804Z,27.03
2018-02-06T00:07:41.797Z,30.23
2018-02-06T00:10:10.383Z,33.87
2018-02-06T00:12:39.070Z,28.37
2018-02-06T00:15:08.162Z,25.77
2018-02-06T00:17:36.714Z,27.97
2018-02-06T00:20:05.435Z,33.27
2018-02-06T00:22:50.974Z,34.90
2018-02-06T00:25:19.702Z,58.60
2018-02-06T00:27:48.381Z,99.00
2018-02-06T00:30:16.994Z,193.40
2018-02-06T00:32:45.556Z,150.80
2018-02-06T00:35:14.269Z,123.77
2018-02-06T00:37:42.974Z,73.73
2018-02-06T00:40:13.420Z,86.17
2018-02-06T00:42:42.137Z,44.63
2018-02-06T00:45:10.824Z,32.63
2018-02-06T00:47:39.475Z,129.60
2018-02-06T00:50:08.195Z,245.97
2018-02-06T00:52:37.306Z,344.27
2018-02-06T00:55:05.977Z,480.40
2018-02-06T00:57:34.563Z,360.83
2018-02-06T01:00:03.259Z,134.10
2018-02-06T01:02:31.932Z,223.10
2018-02-06T01:05:00.487Z,344.47
2018-02-06T01:07:29.363Z,185.63
2018-02-06T01:09:58.812Z,42.97
2018-02-06T01:12:27.450Z,32.87
2018-02-06T01:14:57.204Z,31.70
2018-02-06T01:17:25.837Z,33.53
2018-02-06T01:19:55.156Z,34.93
2018-02-06T01:22:24.183Z,35.27
2018-02-06T01:24:52.815Z,36.77
2018-02-06T01:27:22.281Z,32.20
2018-02-06T01:29:51.272Z,35.53
2018-02-06T01:32:19.848Z,37.63
2018-02-06T01:34:48.534Z,37.93
2018-02-06T01:37:18.450Z,37.73
2018-02-06T01:39:47.096Z,38.00
2018-02-06T01:42:15.821Z,41.53
2018-02-06T01:44:44.622Z,40.23
2018-02-06T01:47:13.982Z,48.47
2018-02-06T01:52:45.843Z,41.77
2018-02-06T01:55:15.395Z,41.90
2018-02-06T01:57:44.086Z,41.43
2018-02-06T02:00:12.821Z,42.60
2018-02-06T02:02:42.478Z,45.87
2018-02-06T02:05:12.600Z,42.80
2018-02-06T02:07:41.289Z,45.87
2018-02-06T02:10:09.988Z,41.43
2018-02-06T02:12:38.659Z,46.67
2018-02-06T02:15:07.346Z,45.07
2018-02-06T02:17:36.092Z,49.83
2018-02-06T02:20:04.715Z,46.37
2018-02-06T02:22:33.403Z,44.13
2018-02-06T02:25:02.344Z,42.50
2018-02-06T02:27:31.696Z,41.63
2018-02-06T02:30:00.482Z,50.80
2018-02-06T02:32:29.175Z,46.10
2018-02-06T02:34:57.852Z,54.27
2018-02-06T02:37:26.404Z,51.50
2018-02-06T02:39:55.009Z,50.47
2018-02-06T04:39:23.270Z,58.90
2018-02-06T04:41:51.971Z,56.93
2018-02-06T04:44:20.652Z,57.87
2018-02-06T04:46:49.441Z,58.33
2018-02-06T04:49:18.024Z,59.17
2018-02-06T04:51:46.710Z,78.97
2018-02-06T04:54:15.653Z,71.90
2018-02-06T04:56:45.102Z,72.10
2018-02-06T04:59:13.652Z,72.53
2018-02-06T05:01:42.306Z,68.37
2018-02-06T05:04:11.774Z,62.17
2018-02-06T05:06:40.446Z,66.40
2018-02-06T05:09:09.389Z,68.10
2018-02-06T05:11:38.752Z,65.17
2018-02-06T05:14:07.300Z,60.83
2018-02-06T05:16:36.026Z,60.83
2018-02-06T05:19:04.712Z,57.83
2018-02-06T05:21:33.399Z,54.60
2018-02-06T05:24:02.183Z,65.67
2018-02-06T05:26:30.868Z,53.93
2018-02-06T05:28:59.449Z,52.83
2018-02-06T05:31:28.208Z,57.80
2018-02-06T05:33:56.890Z,62.80
2018-02-06T05:36:25.533Z,67.13
2018-02-06T05:38:54.469Z,58.13
2018-02-06T05:41:23.156Z,56.10
2018-02-06T05:43:51.847Z,53.53
2018-02-06T05:46:20.736Z,47.20
2018-02-06T05:48:49.291Z,58.07
2018-02-06T05:51:17.840Z,59.67
2018-02-06T05:53:47.307Z,56.40
2018-02-06T05:56:15.998Z,56.13
2018-02-06T05:58:45.461Z,60.83
2018-02-06T06:01:15.036Z,61.70
2018-02-06T06:03:43.702Z,56.47
2018-02-06T06:06:12.375Z,59.73
2018-02-06T06:08:41.215Z,52.23
2018-02-06T06:11:10.573Z,53.13
2018-02-06T06:13:39.214Z,56.70
2018-02-06T06:16:07.944Z,57.03
2018-02-06T06:18:36.727Z,58.50
2018-02-06T06:21:05.428Z,51.37
2018-02-06T06:23:34.195Z,56.90
2018-02-06T06:26:02.888Z,67.70
2018-02-06T06:28:31.680Z,52.20
2018-02-06T06:31:00.880Z,62.47
2018-02-06T06:33:29.665Z,61.33
2018-02-06T06:35:58.310Z,63.17
2018-02-06T06:38:27.025Z,49.57
2018-02-06T06:40:55.692Z,49.43
2018-02-06T06:43:24.280Z,56.70
2018-02-06T06:45:53.755Z,55.57
2018-02-06T06:48:22.400Z,51.17
2018-02-06T06:50:51.120Z,54.30
2018-02-06T06:53:19.914Z,111.93
2018-02-06T06:55:48.473Z,100.23
2018-02-06T06:58:17.032Z,111.80
2018-02-06T07:00:45.644Z,120.07
2018-02-06T07:03:14.966Z,62.20
2018-02-06T07:05:43.516Z,78.13
2018-02-06T07:08:12.203Z,128.27
2018-02-06T07:10:40.754Z,98.97
2018-02-06T07:13:10.068Z,84.23
2018-02-06T07:15:38.656Z,50.93
2018-02-06T07:18:07.212Z,52.83
2018-02-06T07:20:35.764Z,72.37
2018-02-06T07:23:04.704Z,72.27
2018-02-06T07:25:34.020Z,53.80
2018-02-06T07:28:02.572Z,95.37
2018-02-06T07:30:31.396Z,45.23
2018-02-06T07:32:59.955Z,51.93
2018-02-06T07:35:28.640Z,118.67
2018-02-06T07:37:58.018Z,59.63
2018-02-06T07:40:26.581Z,97.17
2018-02-06T07:42:55.140Z,51.17
2018-02-06T07:45:23.904Z,372.17
2018-02-06T07:47:53.228Z,57.57
2018-02-06T07:50:21.784Z,45.27
2018-02-06T07:52:51.300Z,37.03
2018-02-06T07:55:19.860Z,38.80
2018-02-06T07:57:49.188Z,41.70
2018-02-06T08:00:18.066Z,39.40
2018-02-06T08:02:47.377Z,42.30
2018-02-06T08:05:15.922Z,41.77
2018-02-06T08:07:44.528Z,37.73
2018-02-06T08:10:13.852Z,39.30
2018-02-06T08:12:42.457Z,36.47
2018-02-06T08:15:11.348Z,41.70
2018-02-06T08:17:39.964Z,53.47
2018-02-06T08:20:08.521Z,35.33
2018-02-06T08:22:37.144Z,36.67
2018-02-06T08:25:05.696Z,34.77
2018-02-06T08:27:35.085Z,35.73
2018-02-06T08:30:03.853Z,40.43
2018-02-06T08:32:32.404Z,34.37
2018-02-06T08:35:00.967Z,32.93
2018-02-06T08:37:30.623Z,39.13
2018-02-06T08:39:59.187Z,38.13
2018-02-06T08:42:27.745Z,36.37
2018-02-06T08:44:56.344Z,36.70
2018-02-06T08:47:25.080Z,37.60
2018-02-06T08:49:53.642Z,41.17
2018-02-06T08:52:22.537Z,42.53
2018-02-06T08:54:51.084Z,34.50
2018-02-06T08:57:19.672Z,36.83
2018-02-06T08:59:48.465Z,38.73
2018-02-06T09:02:17.025Z,37.40
2018-02-06T09:04:45.580Z,37.70
2018-02-06T09:07:15.088Z,45.03
2018-02-06T09:09:44.408Z,35.40
2018-02-06T09:12:12.987Z,47.67
2018-02-06T09:14:41.587Z,36.37
2018-02-06T09:17:10.156Z,41.50
2018-02-06T09:19:40.222Z,41.03
2018-02-06T09:22:09.029Z,38.67
2018-02-06T09:24:37.587Z,43.33
2018-02-06T09:27:06.211Z,45.37
2018-02-06T09:29:35.676Z,44.40
2018-02-06T09:32:04.228Z,45.90
2018-02-06T09:34:32.836Z,51.03
2018-02-06T09:37:02.408Z,237.23
2018-02-06T09:39:31.749Z,48.27
2018-02-06T09:42:00.312Z,45.40
2018-02-06T09:44:29.020Z,42.57
2018-02-06T09:46:57.576Z,79.97
2018-02-06T09:49:26.132Z,45.80
2018-02-06T09:51:55.492Z,64.67
2018-02-06T09:54:24.059Z,78.07
2018-02-06T09:56:52.616Z,166.20
2018-02-06T09:59:22.176Z,61.53
2018-02-06T10:01:50.735Z,51.70
2018-02-06T10:04:20.061Z,53.23
2018-02-06T10:06:48.672Z,56.80
2018-02-06T10:09:17.227Z,55.93
2018-02-06T10:11:46.701Z,54.67
2018-02-06T10:14:15.551Z,64.87
2018-02-06T10:16:44.108Z,70.37
2018-02-06T10:19:13.424Z,60.73
2018-02-06T10:21:41.967Z,58.33
2018-02-06T10:24:10.625Z,79.03
2018-02-06T10:26:39.180Z,51.43
2018-02-06T10:29:08.097Z,60.03
2018-02-06T10:31:38.207Z,62.90
2018-02-06T10:34:07.699Z,62.93
2018-02-06T10:36:37.745Z,61.73
2018-02-06T10:39:06.266Z,62.97
2018-02-06T10:41:34.803Z,72.37
2018-02-06T10:44:04.067Z,72.43
2018-02-06T10:46:32.733Z,62.90
2018-02-06T10:49:01.447Z,61.53
2018-02-06T10:51:29.941Z,61.03
2018-02-06T10:53:59.938Z,63.07
2018-02-06T10:56:28.706Z,59.43
2018-02-06T10:58:57.203Z,101.57
2018-02-06T11:01:25.869Z,54.13
2018-02-06T11:03:55.379Z,58.67
2018-02-06T11:06:23.878Z,68.77
2018-02-06T11:08:52.477Z,50.10
2018-02-06T11:11:21.131Z,55.47
2018-02-06T11:13:49.636Z,52.47
2018-02-06T11:16:18.298Z,50.30
2018-02-06T11:18:47.442Z,54.43
2018-02-06T11:21:16.695Z,55.80
2018-02-06T11:23:45.384Z,55.10
2018-02-06T11:26:14.100Z,54.67
2018-02-06T11:28:42.723Z,54.23
2018-02-06T11:31:11.237Z,50.70
2018-02-06T11:33:40.318Z,49.47
2018-02-06T11:36:09.616Z,53.47
2018-02-06T11:38:39.988Z,54.90
2018-02-06T11:41:08.542Z,56.27
2018-02-06T11:43:37.037Z,49.57
2018-02-06T11:46:05.527Z,47.70
2018-02-06T11:48:35.023Z,53.33
2018-02-06T11:51:03.564Z,52.93
2018-02-06T11:53:32.140Z,55.77
2018-02-06T11:56:00.839Z,57.83
2018-02-06T11:58:29.334Z,51.63
2018-02-06T12:00:57.890Z,54.63
2018-02-06T12:03:26.534Z,57.80
2018-02-06T12:05:55.790Z,47.60
2018-02-06T12:08:24.335Z,50.37
2018-02-06T12:10:52.985Z,52.23
2018-02-06T12:13:21.486Z,59.47
2018-02-06T12:15:50.742Z,44.73
2018-02-06T12:18:19.387Z,46.37
2018-02-06T12:20:47.883Z,45.83
2018-02-06T12:23:17.138Z,59.27
2018-02-06T12:25:45.815Z,53.53
2018-02-06T12:28:14.318Z,57.80
2018-02-06T12:30:42.932Z,56.60
2018-02-06T12:33:12.635Z,54.23
2018-02-06T12:35:42.633Z,51.50
2018-02-06T12:38:11.122Z,56.27
2018-02-06T12:40:39.814Z,53.30
2018-02-06T12:43:08.568Z,56.87
2018-02-06T12:45:37.062Z,59.77
2018-02-06T12:48:05.884Z,56.20
2018-02-06T12:50:35.143Z,78.93
2018-02-06T12:53:03.679Z,58.93
2018-02-06T12:55:32.439Z,77.97
2018-02-06T12:58:00.931Z,65.33
2018-02-06T13:00:30.185Z,67.23
2018-02-06T13:02:59.181Z,63.83
2018-02-06T13:05:27.682Z,64.63
2018-02-06T13:07:56.160Z,77.57
2018-02-06T13:10:24.863Z,74.20
2018-02-06T13:12:53.344Z,70.30
2018-02-06T13:15:21.880Z,54.50
2018-02-06T13:17:50.422Z,56.77
2018-02-06T13:20:19.674Z,63.70
2018-02-06T13:22:48.159Z,58.47
2018-02-06T13:25:17.146Z,59.40
2018-02-06T13:27:45.655Z,61.43
2018-02-06T13:30:14.145Z,62.70
2018-02-06T13:32:42.675Z,59.47
2018-02-06T13:35:11.164Z,61.40
2018-02-06T13:37:39.652Z,67.53
2018-02-06T13:40:08.854Z,58.53
2018-02-06T13:42:37.429Z,63.73
2018-02-06T13:45:05.975Z,50.73
2018-02-06T13:47:35.274Z,51.13
2018-02-06T13:50:04.008Z,51.33
2018-02-06T13:52:32.507Z,56.93
2018-02-06T13:55:01.202Z,51.73
2018-02-06T13:57:55.153Z,51.87
2018-02-06T14:00:23.871Z,57.17
2018-02-06T14:02:53.336Z,49.53
2018-02-06T14:05:22.022Z,51.33
2018-02-06T14:07:51.016Z,53.60
2018-02-06T14:10:19.647Z,43.90
2018-02-06T14:12:49.112Z,43.10
2018-02-06T14:15:17.853Z,58.47
2018-02-06T14:17:46.521Z,50.97
2018-02-06T14:20:15.980Z,52.30
2018-02-06T14:22:44.958Z,73.77
2018-02-06T14:25:13.658Z,53.53
2018-02-06T14:27:42.293Z,56.53
2018-02-06T14:30:11.763Z,53.30
2018-02-06T14:32:40.324Z,53.83
2018-02-06T14:35:09.016Z,51.20
2018-02-06T14:37:39.656Z,52.33
2018-02-06T14:40:08.388Z,68.53
2018-02-06T14:42:37.800Z,52.43
2018-02-06T14:45:06.542Z,57.80
2018-02-06T14:47:35.209Z,52.67
2018-02-06T14:50:03.796Z,76.43
2018-02-06T14:52:32.398Z,80.47
2018-02-06T14:55:00.961Z,63.47
2018-02-06T14:57:29.522Z,65.80
2018-02-06T14:59:58.151Z,101.53
2018-02-06T15:02:26.712Z,69.00
2018-02-06T15:04:56.045Z,86.73
2018-02-06T15:07:24.654Z,198.20
2018-02-06T15:09:53.220Z,135.03
2018-02-06T15:12:22.548Z,146.53
2018-02-06T15:14:51.165Z,110.90
2018-02-06T15:17:19.725Z,86.97
2018-02-06T15:19:48.285Z,78.63
2018-02-06T15:22:17.652Z,80.70
2018-02-06T15:24:46.988Z,80.93
2018-02-06T15:27:15.544Z,65.93
2018-02-06T15:29:44.149Z,73.43
2018-02-06T15:32:13.467Z,85.83
2018-02-06T15:34:42.028Z,72.30
2018-02-06T15:37:12.416Z,82.93
2018-02-06T15:39:40.973Z,75.97
2018-02-06T15:42:09.649Z,78.40
2018-02-06T15:44:38.264Z,78.07
2018-02-06T15:47:07.632Z,82.00
2018-02-06T15:49:36.192Z,101.03
2018-02-06T15:52:04.996Z,93.73
2018-02-06T15:54:33.557Z,95.13
2018-02-06T15:57:02.112Z,138.23
2018-02-06T15:59:30.928Z,215.43
2018-02-06T16:01:59.522Z,157.23
2018-02-06T16:04:28.091Z,213.60
2018-02-06T16:06:57.176Z,272.23
2018-02-06T16:09:25.874Z,283.23
2018-02-06T16:11:54.439Z,469.10
2018-02-06T16:14:23.091Z,420.60
2018-02-06T16:16:52.445Z,344.10
2018-02-06T16:19:21.000Z,331.87
2018-02-06T16:21:49.610Z,294.33
2018-02-06T16:24:18.174Z,312.77
2018-02-06T16:26:46.732Z,300.50
2018-02-06T16:29:16.102Z,166.57
2018-02-06T16:31:46.118Z,176.00
2018-02-06T16:34:14.781Z,171.77
2018-02-06T16:36:43.488Z,209.67
2018-02-06T16:39:12.046Z,239.90
2018-02-06T16:41:40.608Z,290.50
2018-02-06T16:44:09.425Z,299.67
2018-02-06T16:46:38.943Z,422.30
2018-02-06T16:49:07.509Z,442.93
2018-02-06T16:51:36.425Z,379.37
2018-02-06T16:54:04.987Z,396.27
2018-02-06T16:56:33.545Z,361.20
2018-02-06T16:59:02.354Z,375.27
2018-02-06T17:01:30.944Z,398.93
2018-02-06T17:03:59.501Z,393.13
2018-02-06T17:06:28.113Z,394.27
2018-02-06T17:08:56.848Z,396.53
2018-02-06T17:11:25.419Z,385.50
2018-02-06T17:13:54.785Z,429.03
2018-02-06T17:16:23.357Z,430.97
2018-02-06T17:18:51.920Z,536.00
2018-02-06T17:21:20.548Z,566.50
2018-02-06T17:23:49.112Z,513.97
2018-02-06T17:26:17.672Z,478.10
2018-02-06T17:28:46.589Z,494.57
2018-02-06T17:31:15.968Z,513.00
2018-02-06T17:33:44.533Z,477.27
2018-02-06T17:36:13.460Z,478.50
2018-02-06T17:38:42.026Z,467.93
2018-02-06T17:41:10.588Z,425.63
2018-02-06T17:43:39.206Z,377.47
2018-02-06T17:46:07.768Z,272.20
2018-02-06T17:48:36.328Z,267.50
2018-02-06T17:51:05.791Z,286.53
2018-02-06T17:53:34.365Z,335.20
2018-02-06T17:56:02.924Z,428.43
2018-02-06T17:58:31.638Z,526.90
2018-02-06T18:01:00.201Z,488.97
2018-02-06T18:03:29.525Z,592.00
2018-02-06T18:05:58.306Z,477.87
2018-02-06T18:08:26.868Z,418.70
2018-02-06T18:10:55.484Z,389.93
2018-02-06T18:13:24.119Z,343.70
2018-02-06T18:15:52.693Z,409.20
2018-02-06T18:18:21.255Z,374.30
2018-02-06T18:20:49.965Z,442.93
2018-02-06T18:23:19.319Z,463.50
2018-02-06T18:25:47.894Z,406.23
2018-02-06T18:28:16.886Z,348.80
2018-02-06T18:30:45.461Z,329.23
2018-02-06T18:33:14.024Z,294.17
2018-02-06T18:35:42.641Z,300.63
2018-02-06T18:38:11.197Z,335.33
2018-02-06T18:40:39.752Z,333.60
2018-02-06T18:49:11.976Z,446.53
2018-02-06T18:51:40.595Z,408.57
2018-02-06T18:54:09.148Z,409.17
2018-02-06T18:56:37.734Z,379.00
2018-02-06T18:59:06.448Z,450.43
2018-02-06T19:01:34.999Z,480.50
2018-02-06T19:04:03.564Z,441.60
2018-02-06T19:06:33.120Z,398.20
2018-02-06T19:09:01.672Z,379.17
2018-02-06T19:11:30.243Z,277.93
2018-02-06T19:13:59.003Z,302.03
2018-02-06T19:16:27.560Z,209.47
2018-02-06T19:18:56.116Z,179.20
2018-02-06T19:21:24.876Z,165.83
2018-02-06T19:23:54.196Z,142.53
2018-02-06T19:26:23.464Z,142.80
2018-02-06T19:28:52.824Z,133.07
2018-02-06T19:31:21.376Z,120.73
2018-02-06T19:33:49.931Z,122.27
2018-02-06T19:36:19.311Z,103.23
2018-02-06T19:38:47.876Z,147.73
2018-02-06T19:41:16.432Z,139.40
2018-02-06T19:43:45.248Z,151.00
2018-02-06T19:46:13.796Z,138.93
2018-02-06T19:48:42.350Z,110.17
2018-02-06T19:51:10.953Z,81.07
2018-02-06T19:53:39.531Z,72.13
2018-02-06T19:56:08.844Z,58.10
2018-02-06T19:58:37.602Z,51.30
2018-02-06T20:01:06.932Z,60.47
2018-02-06T20:03:35.484Z,54.07
2018-02-06T20:06:04.196Z,53.53
2018-02-06T20:08:33.509Z,77.63
2018-02-06T20:11:02.061Z,85.43
2018-02-06T20:13:31.544Z,102.23
2018-02-06T20:16:00.096Z,70.17
2018-02-06T20:18:28.644Z,63.47
2018-02-06T20:20:58.070Z,61.00
2018-02-06T20:23:26.620Z,67.83
2018-02-06T20:25:55.936Z,58.27
2018-02-06T20:28:24.532Z,78.60
2018-02-06T20:30:53.088Z,57.73
2018-02-06T20:33:22.408Z,59.60
2018-02-06T20:35:51.000Z,52.03
2018-02-06T20:38:19.564Z,58.27
2018-02-06T20:40:48.903Z,54.93
2018-02-06T20:43:17.594Z,46.23
2018-02-06T20:45:46.141Z,49.07
2018-02-06T20:48:15.516Z,50.37
2018-02-06T20:50:44.155Z,46.20
2018-02-06T20:53:12.760Z,48.17
2018-02-06T20:55:41.313Z,47.10
2018-02-06T20:58:10.225Z,47.90
2018-02-06T21:00:38.789Z,56.80
2018-02-06T21:03:07.406Z,55.17
2018-02-06T21:05:36.004Z,54.33
2018-02-06T21:08:04.561Z,52.93
2018-02-06T21:10:33.121Z,59.40
2018-02-06T21:13:01.840Z,55.60
2018-02-06T21:15:30.427Z,54.13
2018-02-06T21:17:59.768Z,54.33
2018-02-06T21:20:29.132Z,47.63
2018-02-06T21:22:57.692Z,50.10
2018-02-06T21:25:26.249Z,48.70
2018-02-06T21:27:55.892Z,50.27
2018-02-06T21:30:24.440Z,51.00
2018-02-06T21:32:53.004Z,49.60
2018-02-06T21:35:22.367Z,45.57
2018-02-06T21:37:50.936Z,57.67
2018-02-06T21:40:19.484Z,47.60
2018-02-06T21:42:48.180Z,51.30
2018-02-06T21:45:16.736Z,53.67
2018-02-06T21:47:46.057Z,47.43
2018-02-06T21:50:14.761Z,58.47
2018-02-06T21:52:43.320Z,49.13
2018-02-06T21:55:11.872Z,48.47
2018-02-06T21:57:40.834Z,51.13
2018-02-06T22:00:09.388Z,54.17
2018-02-06T22:02:37.944Z,58.40
2018-02-06T22:05:07.305Z,57.93
2018-02-06T22:07:35.862Z,60.57
2018-02-06T22:10:04.416Z,62.00
2018-02-06T22:12:33.969Z,58.97
2018-02-06T22:15:02.524Z,50.13
2018-02-06T22:17:31.081Z,206.97
2018-02-06T22:20:00.606Z,203.60
2018-02-06T22:22:29.163Z,76.83
2018-02-06T22:24:57.712Z,64.83
2018-02-06T22:27:26.463Z,63.97
2018-02-06T22:29:55.040Z,66.40
2018-02-06T22:32:23.588Z,67.77
2018-02-06T22:34:52.220Z,68.10
2018-02-06T22:37:20.769Z,67.20
2018-02-06T22:39:50.088Z,81.27
2018-02-06T22:42:18.688Z,96.70
2018-02-06T22:44:47.264Z,83.93
2018-02-06T22:47:15.813Z,75.10
2018-02-06T22:49:44.408Z,71.80
2018-02-06T22:52:13.726Z,79.00
2018-02-06T22:54:42.292Z,100.27
2018-02-06T22:57:11.759Z,97.57
2018-02-06T22:59:40.317Z,95.60
2018-02-06T23:02:08.880Z,129.43
2018-02-06T23:04:37.492Z,102.20
2018-02-06T23:07:06.044Z,108.13
2018-02-06T23:09:34.608Z,106.53
2018-02-06T23:12:03.976Z,109.57
2018-02-06T23:14:32.533Z,106.20
2018-02-06T23:17:01.093Z,101.43
2018-02-06T23:19:29.800Z,87.53
2018-02-06T23:21:58.356Z,87.03
2018-02-06T23:24:27.680Z,100.90
2018-02-06T23:26:56.301Z,129.27
2018-02-06T23:29:24.849Z,122.77
2018-02-06T23:31:53.488Z,147.03
2018-02-06T23:34:22.864Z,162.27
2018-02-06T23:36:51.461Z,146.13
2018-02-06T23:39:20.019Z,163.33
2018-02-06T23:41:49.018Z,188.93
2018-02-06T23:44:17.576Z,214.17
2018-02-06T23:46:46.133Z,169.90
2018-02-06T23:49:15.512Z,147.70
2018-02-06T23:51:44.886Z,141.77
2018-02-06T23:54:13.441Z,118.63
2018-02-06T23:56:42.046Z,109.07
2018-02-06T23:59:10.580Z,95.77
